sensor_id;sensor_type;location;lat;lon;timestamp;P1;durP1;ratioP1;P2;durP2;ratioP2
31308;SDS011;17936;52.446;10.840;2023-03-14T00:01:13;3.97;;;1.73;;
31308;SDS011;17936;52.446;10.840;2023-03-14T00:03:40;3.28;;;1.40;;
31308;SDS011;17936;52.446;10.840;2023-03-14T00:06:06;4.15;;;1.42;;
31308;SDS011;17936;52.446;10.840;2023-03-14T00:08:32;2.03;;;1.30;;
31308;SDS011;17936;52.446;10.840;2023-03-14T00:11:03;2.67;;;1.20;;
31308;SDS011;17936;52.446;10.840;2023-03-14T00:13:35;3.20;;;1.40;;
31308;SDS011;17936;52.446;10.840;2023-03-14T00:16:02;4.25;;;1.30;;
31308;SDS011;17936;52.446;10.840;2023-03-14T00:18:28;3.20;;;1.48;;
31308;SDS011;17936;52.446;10.840;2023-03-14T00:20:56;4.68;;;1.63;;
31308;SDS011;17936;52.446;10.840;2023-03-14T00:23:23;7.72;;;1.40;;
31308;SDS011;17936;52.446;10.840;2023-03-14T00:25:48;6.85;;;1.70;;
31308;SDS011;17936;52.446;10.840;2023-03-14T00:28:14;3.40;;;1.50;;
31308;SDS011;17936;52.446;10.840;2023-03-14T00:30:39;4.38;;;1.40;;
31308;SDS011;17936;52.446;10.840;2023-03-14T00:33:05;5.30;;;1.42;;
31308;SDS011;17936;52.446;10.840;2023-03-14T00:35:30;4.30;;;1.23;;
31308;SDS011;17936;52.446;10.840;2023-03-14T00:37:56;4.90;;;1.48;;
31308;SDS011;17936;52.446;10.840;2023-03-14T00:40:21;5.53;;;1.20;;
31308;SDS011;17936;52.446;10.840;2023-03-14T00:42:47;2.92;;;1.10;;
31308;SDS011;17936;52.446;10.840;2023-03-14T00:45:12;3.38;;;1.65;;
31308;SDS011;17936;52.446;10.840;2023-03-14T00:47:38;5.00;;;1.30;;
31308;SDS011;17936;52.446;10.840;2023-03-14T00:50:04;3.55;;;1.70;;
31308;SDS011;17936;52.446;10.840;2023-03-14T00:52:30;2.75;;;1.48;;
31308;SDS011;17936;52.446;10.840;2023-03-14T00:54:55;5.40;;;1.60;;
31308;SDS011;17936;52.446;10.840;2023-03-14T00:57:21;2.70;;;1.40;;
31308;SDS011;17936;52.446;10.840;2023-03-14T00:59:46;2.95;;;1.65;;
31308;SDS011;17936;52.446;10.840;2023-03-14T01:02:12;2.88;;;1.50;;
31308;SDS011;17936;52.446;10.840;2023-03-14T01:04:37;4.80;;;1.38;;
31308;SDS011;17936;52.446;10.840;2023-03-14T01:07:04;2.55;;;1.27;;
31308;SDS011;17936;52.446;10.840;2023-03-14T01:09:29;3.03;;;1.30;;
31308;SDS011;17936;52.446;10.840;2023-03-14T01:11:55;3.53;;;1.38;;
31308;SDS011;17936;52.446;10.840;2023-03-14T01:14:20;2.72;;;1.10;;
31308;SDS011;17936;52.446;10.840;2023-03-14T01:16:46;4.72;;;1.25;;
31308;SDS011;17936;52.446;10.840;2023-03-14T01:19:12;6.03;;;1.05;;
31308;SDS011;17936;52.446;10.840;2023-03-14T01:21:38;2.50;;;1.00;;
31308;SDS011;17936;52.446;10.840;2023-03-14T01:24:04;2.70;;;1.23;;
31308;SDS011;17936;52.446;10.840;2023-03-14T01:26:31;2.58;;;1.27;;
31308;SDS011;17936;52.446;10.840;2023-03-14T01:28:58;3.65;;;1.35;;
31308;SDS011;17936;52.446;10.840;2023-03-14T01:31:25;2.85;;;1.33;;
31308;SDS011;17936;52.446;10.840;2023-03-14T01:33:51;7.20;;;1.75;;
31308;SDS011;17936;52.446;10.840;2023-03-14T01:36:17;7.18;;;1.73;;
31308;SDS011;17936;52.446;10.840;2023-03-14T01:38:43;5.05;;;1.50;;
31308;SDS011;17936;52.446;10.840;2023-03-14T01:41:12;4.60;;;1.50;;
31308;SDS011;17936;52.446;10.840;2023-03-14T01:43:39;4.03;;;1.20;;
31308;SDS011;17936;52.446;10.840;2023-03-14T01:48:31;3.33;;;1.25;;
31308;SDS011;17936;52.446;10.840;2023-03-14T01:51:02;3.17;;;1.00;;
31308;SDS011;17936;52.446;10.840;2023-03-14T01:53:31;1.95;;;1.00;;
31308;SDS011;17936;52.446;10.840;2023-03-14T01:55:58;4.10;;;1.10;;
31308;SDS011;17936;52.446;10.840;2023-03-14T01:58:24;7.32;;;1.10;;
31308;SDS011;17936;52.446;10.840;2023-03-14T02:00:53;3.85;;;0.88;;
31308;SDS011;17936;52.446;10.840;2023-03-14T02:03:20;7.20;;;1.70;;
31308;SDS011;17936;52.446;10.840;2023-03-14T02:05:48;2.05;;;1.10;;
31308;SDS011;17936;52.446;10.840;2023-03-14T02:08:15;1.23;;;0.80;;
31308;SDS011;17936;52.446;10.840;2023-03-14T02:10:44;2.20;;;1.08;;
31308;SDS011;17936;52.446;10.840;2023-03-14T02:13:13;1.45;;;0.80;;
31308;SDS011;17936;52.446;10.840;2023-03-14T02:15:40;1.02;;;0.80;;
31308;SDS011;17936;52.446;10.840;2023-03-14T02:18:06;5.90;;;0.93;;
31308;SDS011;17936;52.446;10.840;2023-03-14T02:23:01;6.47;;;1.08;;
31308;SDS011;17936;52.446;10.840;2023-03-14T02:28:05;3.72;;;1.20;;
31308;SDS011;17936;52.446;10.840;2023-03-14T02:30:31;4.72;;;1.00;;
31308;SDS011;17936;52.446;10.840;2023-03-14T02:33:05;3.28;;;0.90;;
31308;SDS011;17936;52.446;10.840;2023-03-14T02:35:35;1.58;;;0.73;;
31308;SDS011;17936;52.446;10.840;2023-03-14T02:38:15;1.02;;;0.90;;
31308;SDS011;17936;52.446;10.840;2023-03-14T02:40:42;3.33;;;0.98;;
31308;SDS011;17936;52.446;10.840;2023-03-14T02:43:08;3.67;;;0.70;;
31308;SDS011;17936;52.446;10.840;2023-03-14T02:45:36;2.58;;;0.88;;
31308;SDS011;17936;52.446;10.840;2023-03-14T02:48:05;3.05;;;0.63;;
31308;SDS011;17936;52.446;10.840;2023-03-14T02:50:34;1.95;;;0.95;;
31308;SDS011;17936;52.446;10.840;2023-03-14T02:52:59;3.40;;;0.82;;
31308;SDS011;17936;52.446;10.840;2023-03-14T02:55:25;1.77;;;0.68;;
31308;SDS011;17936;52.446;10.840;2023-03-14T02:57:51;2.97;;;0.80;;
31308;SDS011;17936;52.446;10.840;2023-03-14T03:00:17;2.30;;;0.90;;
31308;SDS011;17936;52.446;10.840;2023-03-14T03:02:44;3.75;;;0.77;;
31308;SDS011;17936;52.446;10.840;2023-03-14T03:05:10;1.17;;;0.70;;
31308;SDS011;17936;52.446;10.840;2023-03-14T03:07:36;5.03;;;1.00;;
31308;SDS011;17936;52.446;10.840;2023-03-14T03:10:01;2.15;;;0.85;;
31308;SDS011;17936;52.446;10.840;2023-03-14T03:12:28;2.90;;;0.88;;
31308;SDS011;17936;52.446;10.840;2023-03-14T03:14:53;2.45;;;0.93;;
31308;SDS011;17936;52.446;10.840;2023-03-14T03:17:19;2.15;;;0.80;;
31308;SDS011;17936;52.446;10.840;2023-03-14T03:19:44;2.47;;;1.02;;
31308;SDS011;17936;52.446;10.840;2023-03-14T03:22:10;5.30;;;0.80;;
31308;SDS011;17936;52.446;10.840;2023-03-14T03:24:36;2.22;;;0.88;;
31308;SDS011;17936;52.446;10.840;2023-03-14T03:27:01;5.43;;;0.90;;
31308;SDS011;17936;52.446;10.840;2023-03-14T03:29:27;2.70;;;0.70;;
31308;SDS011;17936;52.446;10.840;2023-03-14T03:31:52;2.45;;;1.00;;
31308;SDS011;17936;52.446;10.840;2023-03-14T03:34:18;3.90;;;1.20;;
31308;SDS011;17936;52.446;10.840;2023-03-14T03:36:44;3.90;;;1.13;;
31308;SDS011;17936;52.446;10.840;2023-03-14T03:39:09;5.65;;;1.20;;
31308;SDS011;17936;52.446;10.840;2023-03-14T03:41:35;2.38;;;0.93;;
31308;SDS011;17936;52.446;10.840;2023-03-14T03:44:00;3.58;;;1.30;;
31308;SDS011;17936;52.446;10.840;2023-03-14T03:46:26;7.35;;;0.98;;
31308;SDS011;17936;52.446;10.840;2023-03-14T03:48:55;3.35;;;0.90;;
31308;SDS011;17936;52.446;10.840;2023-03-14T03:51:21;7.97;;;1.90;;
31308;SDS011;17936;52.446;10.840;2023-03-14T03:53:47;4.38;;;1.30;;
31308;SDS011;17936;52.446;10.840;2023-03-14T03:56:12;4.13;;;1.13;;
31308;SDS011;17936;52.446;10.840;2023-03-14T03:58:38;2.50;;;1.08;;
31308;SDS011;17936;52.446;10.840;2023-03-14T04:01:04;7.57;;;1.92;;
31308;SDS011;17936;52.446;10.840;2023-03-14T04:03:31;4.53;;;1.10;;
31308;SDS011;17936;52.446;10.840;2023-03-14T04:05:58;2.67;;;1.00;;
31308;SDS011;17936;52.446;10.840;2023-03-14T04:08:28;1.75;;;0.95;;
31308;SDS011;17936;52.446;10.840;2023-03-14T04:10:58;3.25;;;1.23;;
31308;SDS011;17936;52.446;10.840;2023-03-14T04:13:25;5.30;;;1.13;;
31308;SDS011;17936;52.446;10.840;2023-03-14T04:15:53;5.40;;;1.23;;
31308;SDS011;17936;52.446;10.840;2023-03-14T04:18:20;4.35;;;1.38;;
31308;SDS011;17936;52.446;10.840;2023-03-14T04:20:45;6.25;;;1.33;;
31308;SDS011;17936;52.446;10.840;2023-03-14T04:23:15;4.63;;;1.20;;
31308;SDS011;17936;52.446;10.840;2023-03-14T04:25:41;3.20;;;1.20;;
31308;SDS011;17936;52.446;10.840;2023-03-14T04:28:06;4.50;;;1.15;;
31308;SDS011;17936;52.446;10.840;2023-03-14T04:30:32;4.70;;;0.90;;
31308;SDS011;17936;52.446;10.840;2023-03-14T04:32:57;2.88;;;1.15;;
31308;SDS011;17936;52.446;10.840;2023-03-14T04:35:23;6.70;;;1.10;;
31308;SDS011;17936;52.446;10.840;2023-03-14T04:37:48;4.78;;;1.00;;
31308;SDS011;17936;52.446;10.840;2023-03-14T04:40:14;5.05;;;1.33;;
31308;SDS011;17936;52.446;10.840;2023-03-14T04:42:40;4.35;;;1.30;;
31308;SDS011;17936;52.446;10.840;2023-03-14T04:45:06;3.17;;;1.25;;
31308;SDS011;17936;52.446;10.840;2023-03-14T04:47:32;6.32;;;1.00;;
31308;SDS011;17936;52.446;10.840;2023-03-14T04:49:58;5.82;;;0.80;;
31308;SDS011;17936;52.446;10.840;2023-03-14T04:52:24;5.05;;;1.20;;
31308;SDS011;17936;52.446;10.840;2023-03-14T04:54:50;4.75;;;1.27;;
31308;SDS011;17936;52.446;10.840;2023-03-14T04:57:15;4.63;;;1.02;;
31308;SDS011;17936;52.446;10.840;2023-03-14T04:59:41;3.60;;;1.00;;
31308;SDS011;17936;52.446;10.840;2023-03-14T05:02:07;4.53;;;0.90;;
31308;SDS011;17936;52.446;10.840;2023-03-14T05:04:32;4.60;;;0.98;;
31308;SDS011;17936;52.446;10.840;2023-03-14T05:06:58;8.45;;;1.15;;
31308;SDS011;17936;52.446;10.840;2023-03-14T05:09:24;2.72;;;0.70;;
31308;SDS011;17936;52.446;10.840;2023-03-14T05:11:50;3.03;;;0.63;;
31308;SDS011;17936;52.446;10.840;2023-03-14T05:14:16;2.92;;;0.80;;
31308;SDS011;17936;52.446;10.840;2023-03-14T05:16:42;3.80;;;0.73;;
31308;SDS011;17936;52.446;10.840;2023-03-14T05:19:07;4.25;;;0.68;;
31308;SDS011;17936;52.446;10.840;2023-03-14T05:21:33;3.28;;;0.82;;
31308;SDS011;17936;52.446;10.840;2023-03-14T05:23:59;4.25;;;0.68;;
31308;SDS011;17936;52.446;10.840;2023-03-14T05:26:24;2.70;;;0.85;;
31308;SDS011;17936;52.446;10.840;2023-03-14T05:28:50;2.47;;;0.85;;
31308;SDS011;17936;52.446;10.840;2023-03-14T05:31:15;3.75;;;0.93;;
31308;SDS011;17936;52.446;10.840;2023-03-14T05:33:41;3.55;;;1.02;;
31308;SDS011;17936;52.446;10.840;2023-03-14T05:36:06;2.25;;;0.85;;
31308;SDS011;17936;52.446;10.840;2023-03-14T05:38:32;4.05;;;0.63;;
31308;SDS011;17936;52.446;10.840;2023-03-14T05:40:58;1.15;;;0.50;;
31308;SDS011;17936;52.446;10.840;2023-03-14T05:43:23;2.15;;;0.80;;
31308;SDS011;17936;52.446;10.840;2023-03-14T05:45:49;1.65;;;0.65;;
31308;SDS011;17936;52.446;10.840;2023-03-14T05:48:14;3.65;;;0.63;;
31308;SDS011;17936;52.446;10.840;2023-03-14T05:50:41;4.10;;;0.95;;
31308;SDS011;17936;52.446;10.840;2023-03-14T05:53:07;2.33;;;0.73;;
31308;SDS011;17936;52.446;10.840;2023-03-14T05:55:32;2.95;;;0.73;;
31308;SDS011;17936;52.446;10.840;2023-03-14T05:57:58;3.63;;;0.75;;
31308;SDS011;17936;52.446;10.840;2023-03-14T06:00:23;3.88;;;0.57;;
31308;SDS011;17936;52.446;10.840;2023-03-14T06:02:49;2.60;;;0.90;;
31308;SDS011;17936;52.446;10.840;2023-03-14T06:05:14;4.88;;;0.57;;
31308;SDS011;17936;52.446;10.840;2023-03-14T06:07:40;3.63;;;0.82;;
31308;SDS011;17936;52.446;10.840;2023-03-14T06:10:06;4.93;;;0.80;;
31308;SDS011;17936;52.446;10.840;2023-03-14T06:12:32;0.52;;;0.40;;
31308;SDS011;17936;52.446;10.840;2023-03-14T06:14:58;2.90;;;0.80;;
31308;SDS011;17936;52.446;10.840;2023-03-14T06:17:23;3.80;;;0.90;;
31308;SDS011;17936;52.446;10.840;2023-03-14T06:19:49;3.35;;;0.60;;
31308;SDS011;17936;52.446;10.840;2023-03-14T06:22:14;1.80;;;0.70;;
31308;SDS011;17936;52.446;10.840;2023-03-14T06:24:40;2.80;;;0.57;;
31308;SDS011;17936;52.446;10.840;2023-03-14T06:27:05;4.07;;;0.50;;
31308;SDS011;17936;52.446;10.840;2023-03-14T06:29:31;2.42;;;0.80;;
31308;SDS011;17936;52.446;10.840;2023-03-14T06:31:56;5.53;;;0.70;;
31308;SDS011;17936;52.446;10.840;2023-03-14T06:34:22;2.53;;;0.40;;
31308;SDS011;17936;52.446;10.840;2023-03-14T06:36:47;5.18;;;0.45;;
31308;SDS011;17936;52.446;10.840;2023-03-14T06:39:13;2.20;;;0.43;;
31308;SDS011;17936;52.446;10.840;2023-03-14T06:41:38;2.15;;;0.60;;
31308;SDS011;17936;52.446;10.840;2023-03-14T06:44:04;3.33;;;0.82;;
31308;SDS011;17936;52.446;10.840;2023-03-14T06:46:30;2.45;;;0.70;;
31308;SDS011;17936;52.446;10.840;2023-03-14T06:48:55;3.17;;;0.55;;
31308;SDS011;17936;52.446;10.840;2023-03-14T06:51:21;2.22;;;0.70;;
31308;SDS011;17936;52.446;10.840;2023-03-14T06:53:47;4.18;;;0.70;;
31308;SDS011;17936;52.446;10.840;2023-03-14T06:56:12;2.90;;;0.70;;
31308;SDS011;17936;52.446;10.840;2023-03-14T06:58:38;2.75;;;0.60;;
31308;SDS011;17936;52.446;10.840;2023-03-14T07:01:03;4.80;;;0.77;;
31308;SDS011;17936;52.446;10.840;2023-03-14T07:03:29;3.58;;;0.88;;
31308;SDS011;17936;52.446;10.840;2023-03-14T07:05:55;3.00;;;0.60;;
31308;SDS011;17936;52.446;10.840;2023-03-14T07:08:20;3.58;;;0.47;;
31308;SDS011;17936;52.446;10.840;2023-03-14T07:10:46;1.33;;;0.55;;
31308;SDS011;17936;52.446;10.840;2023-03-14T07:13:11;2.58;;;0.82;;
31308;SDS011;17936;52.446;10.840;2023-03-14T07:15:37;2.92;;;0.60;;
31308;SDS011;17936;52.446;10.840;2023-03-14T07:18:03;3.65;;;0.93;;
31308;SDS011;17936;52.446;10.840;2023-03-14T07:20:28;4.30;;;0.55;;
31308;SDS011;17936;52.446;10.840;2023-03-14T07:22:57;2.30;;;0.68;;
31308;SDS011;17936;52.446;10.840;2023-03-14T07:25:24;3.30;;;0.47;;
31308;SDS011;17936;52.446;10.840;2023-03-14T07:27:50;3.90;;;0.50;;
31308;SDS011;17936;52.446;10.840;2023-03-14T07:30:15;2.42;;;0.52;;
31308;SDS011;17936;52.446;10.840;2023-03-14T07:32:41;1.83;;;0.57;;
31308;SDS011;17936;52.446;10.840;2023-03-14T07:35:07;1.65;;;0.63;;
31308;SDS011;17936;52.446;10.840;2023-03-14T07:37:33;3.08;;;0.80;;
31308;SDS011;17936;52.446;10.840;2023-03-14T07:39:59;3.03;;;0.57;;
31308;SDS011;17936;52.446;10.840;2023-03-14T07:42:24;2.47;;;0.57;;
31308;SDS011;17936;52.446;10.840;2023-03-14T07:44:50;4.78;;;0.65;;
31308;SDS011;17936;52.446;10.840;2023-03-14T07:47:15;2.30;;;0.60;;
31308;SDS011;17936;52.446;10.840;2023-03-14T07:49:41;4.55;;;0.63;;
31308;SDS011;17936;52.446;10.840;2023-03-14T07:52:06;4.22;;;0.80;;
31308;SDS011;17936;52.446;10.840;2023-03-14T07:54:32;6.63;;;0.80;;
31308;SDS011;17936;52.446;10.840;2023-03-14T07:56:57;1.77;;;0.43;;
31308;SDS011;17936;52.446;10.840;2023-03-14T07:59:26;1.98;;;0.50;;
31308;SDS011;17936;52.446;10.840;2023-03-14T08:01:52;4.35;;;1.05;;
31308;SDS011;17936;52.446;10.840;2023-03-14T08:04:18;6.57;;;0.80;;
31308;SDS011;17936;52.446;10.840;2023-03-14T08:06:43;3.38;;;0.60;;
31308;SDS011;17936;52.446;10.840;2023-03-14T08:09:09;1.70;;;0.60;;
31308;SDS011;17936;52.446;10.840;2023-03-14T08:11:35;3.70;;;0.70;;
31308;SDS011;17936;52.446;10.840;2023-03-14T08:14:01;2.33;;;0.57;;
31308;SDS011;17936;52.446;10.840;2023-03-14T08:16:27;4.40;;;0.70;;
31308;SDS011;17936;52.446;10.840;2023-03-14T08:18:52;1.92;;;0.45;;
31308;SDS011;17936;52.446;10.840;2023-03-14T08:21:18;3.47;;;0.55;;
31308;SDS011;17936;52.446;10.840;2023-03-14T08:23:44;2.22;;;0.80;;
31308;SDS011;17936;52.446;10.840;2023-03-14T08:26:09;2.85;;;0.52;;
31308;SDS011;17936;52.446;10.840;2023-03-14T08:28:35;2.58;;;0.60;;
31308;SDS011;17936;52.446;10.840;2023-03-14T08:31:01;6.00;;;1.10;;
31308;SDS011;17936;52.446;10.840;2023-03-14T08:33:27;6.40;;;0.82;;
31308;SDS011;17936;52.446;10.840;2023-03-14T08:35:54;2.15;;;0.50;;
31308;SDS011;17936;52.446;10.840;2023-03-14T08:38:20;3.10;;;0.70;;
31308;SDS011;17936;52.446;10.840;2023-03-14T08:40:46;2.30;;;0.60;;
31308;SDS011;17936;52.446;10.840;2023-03-14T08:43:11;8.60;;;1.20;;
31308;SDS011;17936;52.446;10.840;2023-03-14T08:45:37;3.03;;;0.85;;
31308;SDS011;17936;52.446;10.840;2023-03-14T08:48:03;2.78;;;0.82;;
31308;SDS011;17936;52.446;10.840;2023-03-14T08:50:28;5.70;;;0.98;;
31308;SDS011;17936;52.446;10.840;2023-03-14T08:52:54;3.05;;;1.00;;
31308;SDS011;17936;52.446;10.840;2023-03-14T08:55:20;3.25;;;0.60;;
31308;SDS011;17936;52.446;10.840;2023-03-14T08:57:46;3.95;;;1.02;;
31308;SDS011;17936;52.446;10.840;2023-03-14T09:00:11;3.65;;;0.60;;
31308;SDS011;17936;52.446;10.840;2023-03-14T09:02:41;1.88;;;0.60;;
31308;SDS011;17936;52.446;10.840;2023-03-14T09:05:08;4.00;;;0.80;;
31308;SDS011;17936;52.446;10.840;2023-03-14T09:07:34;5.32;;;0.82;;
31308;SDS011;17936;52.446;10.840;2023-03-14T09:09:59;2.75;;;0.68;;
31308;SDS011;17936;52.446;10.840;2023-03-14T09:12:25;5.72;;;0.93;;
31308;SDS011;17936;52.446;10.840;2023-03-14T09:14:50;3.65;;;1.00;;
31308;SDS011;17936;52.446;10.840;2023-03-14T09:17:15;3.95;;;1.13;;
31308;SDS011;17936;52.446;10.840;2023-03-14T09:19:41;3.88;;;0.60;;
31308;SDS011;17936;52.446;10.840;2023-03-14T09:22:07;1.80;;;0.50;;
31308;SDS011;17936;52.446;10.840;2023-03-14T09:24:32;4.68;;;1.10;;
31308;SDS011;17936;52.446;10.840;2023-03-14T09:26:58;6.53;;;0.90;;
31308;SDS011;17936;52.446;10.840;2023-03-14T09:29:23;3.28;;;0.75;;
31308;SDS011;17936;52.446;10.840;2023-03-14T09:31:49;2.50;;;0.80;;
31308;SDS011;17936;52.446;10.840;2023-03-14T09:34:15;5.18;;;0.75;;
31308;SDS011;17936;52.446;10.840;2023-03-14T09:36:41;5.20;;;1.20;;
31308;SDS011;17936;52.446;10.840;2023-03-14T09:39:09;5.32;;;1.40;;
31308;SDS011;17936;52.446;10.840;2023-03-14T09:41:35;2.05;;;0.52;;
31308;SDS011;17936;52.446;10.840;2023-03-14T09:44:10;2.92;;;0.60;;
31308;SDS011;17936;52.446;10.840;2023-03-14T09:46:41;4.32;;;0.90;;
31308;SDS011;17936;52.446;10.840;2023-03-14T09:49:11;4.07;;;0.90;;
31308;SDS011;17936;52.446;10.840;2023-03-14T09:52:00;5.15;;;1.35;;
31308;SDS011;17936;52.446;10.840;2023-03-14T09:54:37;3.33;;;0.63;;
31308;SDS011;17936;52.446;10.840;2023-03-14T09:59:43;2.33;;;0.70;;
31308;SDS011;17936;52.446;10.840;2023-03-14T10:02:18;3.65;;;0.60;;
31308;SDS011;17936;52.446;10.840;2023-03-14T10:04:49;2.85;;;0.63;;
31308;SDS011;17936;52.446;10.840;2023-03-14T10:07:21;3.05;;;0.73;;
31308;SDS011;17936;52.446;10.840;2023-03-14T10:09:53;1.45;;;0.63;;
31308;SDS011;17936;52.446;10.840;2023-03-14T10:12:34;3.33;;;0.75;;
31308;SDS011;17936;52.446;10.840;2023-03-14T10:15:06;1.70;;;0.40;;
31308;SDS011;17936;52.446;10.840;2023-03-14T10:17:40;2.83;;;0.40;;
31308;SDS011;17936;52.446;10.840;2023-03-14T10:20:06;1.80;;;0.57;;
31308;SDS011;17936;52.446;10.840;2023-03-14T10:22:50;1.80;;;0.43;;
31308;SDS011;17936;52.446;10.840;2023-03-14T10:25:23;2.40;;;0.38;;
31308;SDS011;17936;52.446;10.840;2023-03-14T10:27:51;1.95;;;0.50;;
31308;SDS011;17936;52.446;10.840;2023-03-14T10:33:03;1.27;;;0.50;;
31308;SDS011;17936;52.446;10.840;2023-03-14T10:35:35;1.63;;;0.45;;
31308;SDS011;17936;52.446;10.840;2023-03-14T10:38:01;1.35;;;0.30;;
31308;SDS011;17936;52.446;10.840;2023-03-14T10:40:30;0.10;;;0.10;;
31308;SDS011;17936;52.446;10.840;2023-03-14T10:43:03;1.45;;;0.32;;
31308;SDS011;17936;52.446;10.840;2023-03-14T10:47:59;1.38;;;0.20;;
31308;SDS011;17936;52.446;10.840;2023-03-14T10:50:47;0.80;;;0.20;;
31308;SDS011;17936;52.446;10.840;2023-03-14T10:53:19;0.40;;;0.20;;
31308;SDS011;17936;52.446;10.840;2023-03-14T10:55:45;1.98;;;0.43;;
31308;SDS011;17936;52.446;10.840;2023-03-14T11:01:16;0.15;;;0.10;;
31308;SDS011;17936;52.446;10.840;2023-03-14T11:03:56;1.65;;;0.40;;
31308;SDS011;17936;52.446;10.840;2023-03-14T11:06:44;1.20;;;0.43;;
31308;SDS011;17936;52.446;10.840;2023-03-14T11:09:25;1.65;;;0.40;;
31308;SDS011;17936;52.446;10.840;2023-03-14T11:15:27;1.25;;;0.60;;
31308;SDS011;17936;52.446;10.840;2023-03-14T11:18:21;1.35;;;0.30;;
31308;SDS011;17936;52.446;10.840;2023-03-14T11:23:58;1.77;;;0.30;;
31308;SDS011;17936;52.446;10.840;2023-03-14T11:26:48;1.48;;;0.40;;
31308;SDS011;17936;52.446;10.840;2023-03-14T11:29:32;0.20;;;0.15;;
31308;SDS011;17936;52.446;10.840;2023-03-14T11:32:12;0.80;;;0.47;;
31308;SDS011;17936;52.446;10.840;2023-03-14T11:34:50;1.08;;;0.22;;
31308;SDS011;17936;52.446;10.840;2023-03-14T11:37:25;0.25;;;0.10;;
31308;SDS011;17936;52.446;10.840;2023-03-14T11:40:01;2.28;;;0.40;;
31308;SDS011;17936;52.446;10.840;2023-03-14T11:42:33;0.50;;;0.40;;
31308;SDS011;17936;52.446;10.840;2023-03-14T11:44:59;0.65;;;0.28;;
31308;SDS011;17936;52.446;10.840;2023-03-14T11:47:29;0.82;;;0.40;;
31308;SDS011;17936;52.446;10.840;2023-03-14T11:50:14;1.65;;;0.40;;
31308;SDS011;17936;52.446;10.840;2023-03-14T11:57:56;1.27;;;0.30;;
31308;SDS011;17936;52.446;10.840;2023-03-14T12:00:40;2.97;;;0.20;;
31308;SDS011;17936;52.446;10.840;2023-03-14T12:03:11;0.65;;;0.40;;
31308;SDS011;17936;52.446;10.840;2023-03-14T12:08:43;0.50;;;0.30;;
31308;SDS011;17936;52.446;10.840;2023-03-14T12:11:32;1.40;;;0.40;;
31308;SDS011;17936;52.446;10.840;2023-03-14T12:14:00;0.40;;;0.20;;
31308;SDS011;17936;52.446;10.840;2023-03-14T12:16:34;0.63;;;0.30;;
31308;SDS011;17936;52.446;10.840;2023-03-14T12:21:53;0.30;;;0.10;;
31308;SDS011;17936;52.446;10.840;2023-03-14T12:24:44;1.42;;;0.30;;
31308;SDS011;17936;52.446;10.840;2023-03-14T12:27:13;0.60;;;0.25;;
31308;SDS011;17936;52.446;10.840;2023-03-14T12:35:45;0.98;;;0.38;;
31308;SDS011;17936;52.446;10.840;2023-03-14T12:38:21;0.73;;;0.28;;
31308;SDS011;17936;52.446;10.840;2023-03-14T12:43:48;0.85;;;0.20;;
31308;SDS011;17936;52.446;10.840;2023-03-14T12:48:54;1.75;;;0.20;;
31308;SDS011;17936;52.446;10.840;2023-03-14T12:51:29;0.57;;;0.10;;
31308;SDS011;17936;52.446;10.840;2023-03-14T12:53:59;0.95;;;0.22;;
31308;SDS011;17936;52.446;10.840;2023-03-14T12:56:58;0.35;;;0.20;;
31308;SDS011;17936;52.446;10.840;2023-03-14T13:04:36;0.43;;;0.20;;
31308;SDS011;17936;52.446;10.840;2023-03-14T13:07:15;0.10;;;0.10;;
31308;SDS011;17936;52.446;10.840;2023-03-14T13:15:44;4.13;;;0.20;;
31308;SDS011;17936;52.446;10.840;2023-03-14T13:18:12;0.70;;;0.28;;
31308;SDS011;17936;52.446;10.840;2023-03-14T13:20:40;0.73;;;0.40;;
31308;SDS011;17936;52.446;10.840;2023-03-14T13:23:23;2.90;;;0.90;;
31308;SDS011;17936;52.446;10.840;2023-03-14T13:25:50;1.65;;;0.77;;
31308;SDS011;17936;52.446;10.840;2023-03-14T13:28:16;3.70;;;1.73;;
31308;SDS011;17936;52.446;10.840;2023-03-14T13:30:43;0.75;;;0.40;;
31308;SDS011;17936;52.446;10.840;2023-03-14T13:33:13;0.68;;;0.30;;
31308;SDS011;17936;52.446;10.840;2023-03-14T13:35:48;0.75;;;0.40;;
31308;SDS011;17936;52.446;10.840;2023-03-14T13:38:21;1.13;;;0.30;;
31308;SDS011;17936;52.446;10.840;2023-03-14T13:40:48;0.25;;;0.17;;
31308;SDS011;17936;52.446;10.840;2023-03-14T13:46:15;0.73;;;0.47;;
31308;SDS011;17936;52.446;10.840;2023-03-14T13:48:49;1.38;;;0.60;;
31308;SDS011;17936;52.446;10.840;2023-03-14T13:51:23;2.97;;;0.38;;
31308;SDS011;17936;52.446;10.840;2023-03-14T13:53:53;0.20;;;0.20;;
31308;SDS011;17936;52.446;10.840;2023-03-14T13:56:20;0.47;;;0.20;;
31308;SDS011;17936;52.446;10.840;2023-03-14T13:58:48;0.90;;;0.47;;
31308;SDS011;17936;52.446;10.840;2023-03-14T14:01:17;2.03;;;0.80;;
31308;SDS011;17936;52.446;10.840;2023-03-14T14:03:46;1.50;;;0.93;;
31308;SDS011;17936;52.446;10.840;2023-03-14T14:09:15;4.95;;;0.45;;
31308;SDS011;17936;52.446;10.840;2023-03-14T14:14:17;1.70;;;0.55;;
31308;SDS011;17936;52.446;10.840;2023-03-14T14:16:52;5.90;;;1.02;;
31308;SDS011;17936;52.446;10.840;2023-03-14T14:19:19;1.50;;;0.73;;
31308;SDS011;17936;52.446;10.840;2023-03-14T14:21:47;4.70;;;1.23;;
31308;SDS011;17936;52.446;10.840;2023-03-14T14:24:14;5.13;;;1.10;;
31308;SDS011;17936;52.446;10.840;2023-03-14T14:26:41;6.30;;;0.75;;
31308;SDS011;17936;52.446;10.840;2023-03-14T14:29:22;7.20;;;1.20;;
31308;SDS011;17936;52.446;10.840;2023-03-14T14:39:49;3.33;;;1.10;;
31308;SDS011;17936;52.446;10.840;2023-03-14T14:42:18;4.72;;;0.98;;
31308;SDS011;17936;52.446;10.840;2023-03-14T14:44:49;4.57;;;1.20;;
31308;SDS011;17936;52.446;10.840;2023-03-14T14:47:17;8.80;;;1.35;;
31308;SDS011;17936;52.446;10.840;2023-03-14T14:49:46;8.25;;;1.08;;
31308;SDS011;17936;52.446;10.840;2023-03-14T14:52:14;6.88;;;1.23;;
31308;SDS011;17936;52.446;10.840;2023-03-14T14:54:58;3.50;;;1.13;;
31308;SDS011;17936;52.446;10.840;2023-03-14T14:57:25;3.22;;;0.90;;
31308;SDS011;17936;52.446;10.840;2023-03-14T14:59:55;5.25;;;1.13;;
31308;SDS011;17936;52.446;10.840;2023-03-14T15:02:35;4.97;;;1.38;;
31308;SDS011;17936;52.446;10.840;2023-03-14T15:05:12;3.40;;;0.85;;
31308;SDS011;17936;52.446;10.840;2023-03-14T15:07:44;4.70;;;1.00;;
31308;SDS011;17936;52.446;10.840;2023-03-14T15:10:15;7.65;;;1.60;;
31308;SDS011;17936;52.446;10.840;2023-03-14T15:12:43;4.97;;;1.25;;
31308;SDS011;17936;52.446;10.840;2023-03-14T15:15:09;6.43;;;1.30;;
31308;SDS011;17936;52.446;10.840;2023-03-14T15:17:36;6.00;;;1.50;;
31308;SDS011;17936;52.446;10.840;2023-03-14T15:20:03;6.50;;;1.50;;
31308;SDS011;17936;52.446;10.840;2023-03-14T15:22:30;11.05;;;2.03;;
31308;SDS011;17936;52.446;10.840;2023-03-14T15:24:56;10.05;;;1.75;;
31308;SDS011;17936;52.446;10.840;2023-03-14T15:27:21;7.82;;;1.50;;
31308;SDS011;17936;52.446;10.840;2023-03-14T15:29:48;10.30;;;1.85;;
31308;SDS011;17936;52.446;10.840;2023-03-14T15:32:14;15.82;;;2.10;;
31308;SDS011;17936;52.446;10.840;2023-03-14T15:34:41;18.63;;;1.83;;
31308;SDS011;17936;52.446;10.840;2023-03-14T15:37:14;13.43;;;1.92;;
31308;SDS011;17936;52.446;10.840;2023-03-14T15:39:41;9.02;;;1.55;;
31308;SDS011;17936;52.446;10.840;2023-03-14T15:42:07;18.95;;;2.03;;
31308;SDS011;17936;52.446;10.840;2023-03-14T15:44:34;15.90;;;2.08;;
31308;SDS011;17936;52.446;10.840;2023-03-14T15:47:00;12.57;;;1.70;;
31308;SDS011;17936;52.446;10.840;2023-03-14T15:49:26;6.70;;;1.67;;
31308;SDS011;17936;52.446;10.840;2023-03-14T15:51:52;13.18;;;1.88;;
31308;SDS011;17936;52.446;10.840;2023-03-14T15:54:17;15.32;;;2.30;;